sensor_id;sensor_type;location;lat;lon;timestamp;pressure;altitude;pressure_sealevel;temperature
27826;BMP280;15077;49.704;9.908;2023-09-19T00:00:57;97644.75;;;21.59
27826;BMP280;15077;49.704;9.908;2023-09-19T00:03:23;97645.88;;;21.57
27826;BMP280;15077;49.704;9.908;2023-09-19T00:05:52;97640.84;;;21.55
27826;BMP280;15077;49.704;9.908;2023-09-19T00:08:20;97652.09;;;21.54
27826;BMP280;15077;49.704;9.908;2023-09-19T00:10:51;97643.41;;;21.55
27826;BMP280;15077;49.704;9.908;2023-09-19T00:13:19;97645.16;;;21.55
27826;BMP280;15077;49.704;9.908;2023-09-19T00:15:47;97649.81;;;21.51
27826;BMP280;15077;49.704;9.908;2023-09-19T00:18:19;97647.50;;;21.48
27826;BMP280;15077;49.704;9.908;2023-09-19T00:20:57;97640.00;;;21.45
27826;BMP280;15077;49.704;9.908;2023-09-19T00:23:25;97636.06;;;21.42
27826;BMP280;15077;49.704;9.908;2023-09-19T00:25:52;97644.91;;;21.39
27826;BMP280;15077;49.704;9.908;2023-09-19T00:28:28;97649.66;;;21.34
27826;BMP280;15077;49.704;9.908;2023-09-19T00:30:59;97654.28;;;21.31
27826;BMP280;15077;49.704;9.908;2023-09-19T00:33:29;97652.66;;;21.30
27826;BMP280;15077;49.704;9.908;2023-09-19T00:35:57;97647.63;;;21.28
27826;BMP280;15077;49.704;9.908;2023-09-19T00:38:23;97656.47;;;21.26
27826;BMP280;15077;49.704;9.908;2023-09-19T00:40:53;97660.00;;;21.25
27826;BMP280;15077;49.704;9.908;2023-09-19T00:43:20;97658.34;;;21.24
27826;BMP280;15077;49.704;9.908;2023-09-19T00:45:51;97661.91;;;21.23
27826;BMP280;15077;49.704;9.908;2023-09-19T00:48:18;97659.34;;;21.23
27826;BMP280;15077;49.704;9.908;2023-09-19T00:50:46;97658.34;;;21.24
27826;BMP280;15077;49.704;9.908;2023-09-19T00:53:23;97655.91;;;21.22
27826;BMP280;15077;49.704;9.908;2023-09-19T00:55:55;97655.78;;;21.24
27826;BMP280;15077;49.704;9.908;2023-09-19T00:58:22;97658.34;;;21.24
27826;BMP280;15077;49.704;9.908;2023-09-19T01:00:51;97668.66;;;21.24
27826;BMP280;15077;49.704;9.908;2023-09-19T01:03:17;97670.31;;;21.25
27826;BMP280;15077;49.704;9.908;2023-09-19T01:05:45;97671.13;;;21.25
27826;BMP280;15077;49.704;9.908;2023-09-19T01:08:11;97665.97;;;21.25
27826;BMP280;15077;49.704;9.908;2023-09-19T01:10:52;97672.09;;;21.24
27826;BMP280;15077;49.704;9.908;2023-09-19T01:16:46;97674.38;;;21.18
27826;BMP280;15077;49.704;9.908;2023-09-19T01:26:15;97685.09;;;21.13
27826;BMP280;15077;49.704;9.908;2023-09-19T01:29:23;97680.34;;;21.09
27826;BMP280;15077;49.704;9.908;2023-09-19T01:32:01;97683.31;;;21.14
27826;BMP280;15077;49.704;9.908;2023-09-19T01:35:03;97688.34;;;21.06
27826;BMP280;15077;49.704;9.908;2023-09-19T01:37:30;97682.50;;;21.13
27826;BMP280;15077;49.704;9.908;2023-09-19T01:40:08;97698.78;;;21.14
27826;BMP280;15077;49.704;9.908;2023-09-19T01:45:56;97693.09;;;21.10
27826;BMP280;15077;49.704;9.908;2023-09-19T01:52:02;97695.66;;;21.10
27826;BMP280;15077;49.704;9.908;2023-09-19T01:54:49;97701.34;;;21.14
27826;BMP280;15077;49.704;9.908;2023-09-19T01:57:28;97703.66;;;21.17
27826;BMP280;15077;49.704;9.908;2023-09-19T02:00:05;97702.59;;;21.19
27826;BMP280;15077;49.704;9.908;2023-09-19T02:02:40;97711.00;;;21.21
27826;BMP280;15077;49.704;9.908;2023-09-19T02:05:10;97709.25;;;21.22
27826;BMP280;15077;49.704;9.908;2023-09-19T02:07:38;97709.91;;;21.24
27826;BMP280;15077;49.704;9.908;2023-09-19T02:10:08;97718.63;;;21.23
27826;BMP280;15077;49.704;9.908;2023-09-19T02:12:36;97709.09;;;21.23
27826;BMP280;15077;49.704;9.908;2023-09-19T02:15:05;97725.38;;;21.24
27826;BMP280;15077;49.704;9.908;2023-09-19T02:17:32;97723.75;;;21.23
27826;BMP280;15077;49.704;9.908;2023-09-19T02:19:58;97711.81;;;21.22
27826;BMP280;15077;49.704;9.908;2023-09-19T02:22:34;97723.06;;;21.21
27826;BMP280;15077;49.704;9.908;2023-09-19T02:25:00;97729.19;;;21.20
27826;BMP280;15077;49.704;9.908;2023-09-19T02:27:27;97734.34;;;21.20
27826;BMP280;15077;49.704;9.908;2023-09-19T02:29:54;97724.84;;;21.20
27826;BMP280;15077;49.704;9.908;2023-09-19T02:32:24;97721.31;;;21.21
27826;BMP280;15077;49.704;9.908;2023-09-19T02:34:51;97715.34;;;21.21
27826;BMP280;15077;49.704;9.908;2023-09-19T02:37:19;97710.19;;;21.21
27826;BMP280;15077;49.704;9.908;2023-09-19T02:39:46;97722.41;;;21.19
27826;BMP280;15077;49.704;9.908;2023-09-19T02:42:14;97723.34;;;21.18
27826;BMP280;15077;49.704;9.908;2023-09-19T02:44:40;97719.41;;;21.14
27826;BMP280;15077;49.704;9.908;2023-09-19T02:47:06;97723.88;;;21.12
27826;BMP280;15077;49.704;9.908;2023-09-19T02:49:33;97730.81;;;21.11
27826;BMP280;15077;49.704;9.908;2023-09-19T02:52:02;97735.13;;;21.11
27826;BMP280;15077;49.704;9.908;2023-09-19T02:54:29;97730.25;;;21.08
27826;BMP280;15077;49.704;9.908;2023-09-19T02:56:58;97730.25;;;21.08
27826;BMP280;15077;49.704;9.908;2023-09-19T02:59:24;97731.22;;;21.07
27826;BMP280;15077;49.704;9.908;2023-09-19T03:01:52;97737.16;;;21.07
27826;BMP280;15077;49.704;9.908;2023-09-19T03:04:21;97754.41;;;21.07
27826;BMP280;15077;49.704;9.908;2023-09-19T03:06:48;97742.47;;;21.06
27826;BMP280;15077;49.704;9.908;2023-09-19T03:09:14;97739.88;;;21.06
27826;BMP280;15077;49.704;9.908;2023-09-19T03:11:42;97744.09;;;21.07
27826;BMP280;15077;49.704;9.908;2023-09-19T03:14:09;97739.88;;;21.06
27826;BMP280;15077;49.704;9.908;2023-09-19T03:16:36;97740.56;;;21.08
27826;BMP280;15077;49.704;9.908;2023-09-19T03:19:03;97756.00;;;21.08
27826;BMP280;15077;49.704;9.908;2023-09-19T03:21:29;97757.66;;;21.09
27826;BMP280;15077;49.704;9.908;2023-09-19T03:23:56;97757.66;;;21.09
27826;BMP280;15077;49.704;9.908;2023-09-19T03:26:21;97758.59;;;21.08
27826;BMP280;15077;49.704;9.908;2023-09-19T03:28:49;97763.75;;;21.08
27826;BMP280;15077;49.704;9.908;2023-09-19T03:31:16;97762.00;;;21.08
27826;BMP280;15077;49.704;9.908;2023-09-19T03:33:46;97773.09;;;21.09
27826;BMP280;15077;49.704;9.908;2023-09-19T03:36:12;97759.56;;;21.07
27826;BMP280;15077;49.704;9.908;2023-09-19T03:38:40;97769.88;;;21.07
27826;BMP280;15077;49.704;9.908;2023-09-19T03:41:06;97766.59;;;21.05
27826;BMP280;15077;49.704;9.908;2023-09-19T03:43:32;97764.84;;;21.05
27826;BMP280;15077;49.704;9.908;2023-09-19T03:46:02;97766.31;;;21.08
27826;BMP280;15077;49.704;9.908;2023-09-19T03:48:31;97762.81;;;21.09
27826;BMP280;15077;49.704;9.908;2023-09-19T03:50:58;97769.19;;;21.14
27826;BMP280;15077;49.704;9.908;2023-09-19T03:53:26;97763.91;;;21.16
27826;BMP280;15077;49.704;9.908;2023-09-19T03:55:51;97766.88;;;21.21
27826;BMP280;15077;49.704;9.908;2023-09-19T03:58:18;97776.78;;;21.25
27826;BMP280;15077;49.704;9.908;2023-09-19T04:00:44;97773.94;;;21.28
27826;BMP280;15077;49.704;9.908;2023-09-19T04:03:10;97782.91;;;21.34
27826;BMP280;15077;49.704;9.908;2023-09-19T04:05:45;97791.47;;;21.43
27826;BMP280;15077;49.704;9.908;2023-09-19T04:08:13;97791.34;;;21.45
27826;BMP280;15077;49.704;9.908;2023-09-19T04:10:45;97778.56;;;21.43
27826;BMP280;15077;49.704;9.908;2023-09-19T04:13:11;97779.78;;;21.40
27826;BMP280;15077;49.704;9.908;2023-09-19T04:15:37;97780.06;;;21.37
27826;BMP280;15077;49.704;9.908;2023-09-19T04:18:03;97780.47;;;21.32
27826;BMP280;15077;49.704;9.908;2023-09-19T04:20:29;97782.38;;;21.30
27826;BMP280;15077;49.704;9.908;2023-09-19T04:22:55;97784.53;;;21.25
27826;BMP280;15077;49.704;9.908;2023-09-19T04:25:21;97782.91;;;21.24
27826;BMP280;15077;49.704;9.908;2023-09-19T04:27:47;97788.19;;;21.23
27826;BMP280;15077;49.704;9.908;2023-09-19T04:30:13;97790.78;;;21.23
27826;BMP280;15077;49.704;9.908;2023-09-19T04:32:40;97795.94;;;21.23
27826;BMP280;15077;49.704;9.908;2023-09-19T04:35:08;97789.13;;;21.22
27826;BMP280;15077;49.704;9.908;2023-09-19T04:37:40;97794.16;;;21.23
27826;BMP280;15077;49.704;9.908;2023-09-19T04:40:10;97794.97;;;21.24
27826;BMP280;15077;49.704;9.908;2023-09-19T04:42:44;97792.38;;;21.24
27826;BMP280;15077;49.704;9.908;2023-09-19T04:45:10;97796.75;;;21.23
27826;BMP280;15077;49.704;9.908;2023-09-19T04:47:37;97798.38;;;21.24
27826;BMP280;15077;49.704;9.908;2023-09-19T04:50:09;97794.97;;;21.24
27826;BMP280;15077;49.704;9.908;2023-09-19T04:52:40;97804.47;;;21.23
27826;BMP280;15077;49.704;9.908;2023-09-19T04:55:12;97802.03;;;21.22
27826;BMP280;15077;49.704;9.908;2023-09-19T04:57:50;97810.03;;;21.19
27826;BMP280;15077;49.704;9.908;2023-09-19T05:00:18;97819.50;;;21.18
27826;BMP280;15077;49.704;9.908;2023-09-19T05:02:50;97820.19;;;21.20
27826;BMP280;15077;49.704;9.908;2023-09-19T05:05:18;97821.97;;;21.20
27826;BMP280;15077;49.704;9.908;2023-09-19T05:07:45;97825.50;;;21.19
27826;BMP280;15077;49.704;9.908;2023-09-19T05:10:11;97832.28;;;21.20
27826;BMP280;15077;49.704;9.908;2023-09-19T05:12:38;97833.09;;;21.20
27826;BMP280;15077;49.704;9.908;2023-09-19T05:15:06;97834.72;;;21.21
27826;BMP280;15077;49.704;9.908;2023-09-19T05:17:35;97833.22;;;21.19
27826;BMP280;15077;49.704;9.908;2023-09-19T05:20:03;97837.69;;;21.17
27826;BMP280;15077;49.704;9.908;2023-09-19T05:22:31;97846.38;;;21.16
27826;BMP280;15077;49.704;9.908;2023-09-19T05:24:58;97849.09;;;21.14
27826;BMP280;15077;49.704;9.908;2023-09-19T05:27:24;97850.16;;;21.12
27826;BMP280;15077;49.704;9.908;2023-09-19T05:29:50;97850.16;;;21.12
27826;BMP280;15077;49.704;9.908;2023-09-19T05:32:19;97850.97;;;21.12
27826;BMP280;15077;49.704;9.908;2023-09-19T05:34:46;97855.31;;;21.12
27826;BMP280;15077;49.704;9.908;2023-09-19T05:37:13;97852.06;;;21.10
27826;BMP280;15077;49.704;9.908;2023-09-19T05:39:42;97853.00;;;21.09
27826;BMP280;15077;49.704;9.908;2023-09-19T05:42:08;97860.72;;;21.09
27826;BMP280;15077;49.704;9.908;2023-09-19T05:44:33;97872.81;;;21.08
27826;BMP280;15077;49.704;9.908;2023-09-19T05:46:59;97865.06;;;21.08
27826;BMP280;15077;49.704;9.908;2023-09-19T05:49:25;97874.53;;;21.08
27826;BMP280;15077;49.704;9.908;2023-09-19T05:51:51;97877.00;;;21.09
27826;BMP280;15077;49.704;9.908;2023-09-19T05:54:19;97874.53;;;21.08
27826;BMP280;15077;49.704;9.908;2023-09-19T05:56:45;97878.09;;;21.07
27826;BMP280;15077;49.704;9.908;2023-09-19T05:59:12;97891.91;;;21.06
27826;BMP280;15077;49.704;9.908;2023-09-19T06:01:42;97891.91;;;21.06
27826;BMP280;15077;49.704;9.908;2023-09-19T06:04:08;97897.88;;;21.06
27826;BMP280;15077;49.704;9.908;2023-09-19T06:06:34;97894.50;;;21.06
27826;BMP280;15077;49.704;9.908;2023-09-19T06:09:06;97897.19;;;21.04
27826;BMP280;15077;49.704;9.908;2023-09-19T06:11:34;97900.44;;;21.06
27826;BMP280;15077;49.704;9.908;2023-09-19T06:14:04;97900.31;;;21.08
27826;BMP280;15077;49.704;9.908;2023-09-19T06:16:30;97893.41;;;21.08
27826;BMP280;15077;49.704;9.908;2023-09-19T06:19:00;97888.94;;;21.10
27826;BMP280;15077;49.704;9.908;2023-09-19T06:21:27;97885.97;;;21.15
27826;BMP280;15077;49.704;9.908;2023-09-19T06:23:56;97896.16;;;21.16
27826;BMP280;15077;49.704;9.908;2023-09-19T06:26:23;97894.63;;;21.14
27826;BMP280;15077;49.704;9.908;2023-09-19T06:28:52;97897.91;;;21.16
27826;BMP280;15077;49.704;9.908;2023-09-19T06:31:18;97890.19;;;21.16
27826;BMP280;15077;49.704;9.908;2023-09-19T06:33:43;97893.69;;;21.15
27826;BMP280;15077;49.704;9.908;2023-09-19T06:36:10;97904.69;;;21.17
27826;BMP280;15077;49.704;9.908;2023-09-19T06:38:36;97892.50;;;21.19
27826;BMP280;15077;49.704;9.908;2023-09-19T06:41:04;97897.66;;;21.19
27826;BMP280;15077;49.704;9.908;2023-09-19T06:43:31;97900.09;;;21.20
27826;BMP280;15077;49.704;9.908;2023-09-19T06:46:00;97914.75;;;21.20
27826;BMP280;15077;49.704;9.908;2023-09-19T06:48:26;97908.78;;;21.19
27826;BMP280;15077;49.704;9.908;2023-09-19T06:50:56;97911.34;;;21.19
27826;BMP280;15077;49.704;9.908;2023-09-19T06:53:24;97918.41;;;21.17
27826;BMP280;15077;49.704;9.908;2023-09-19T06:55:51;97923.44;;;21.19
27826;BMP280;15077;49.704;9.908;2023-09-19T06:58:17;97920.84;;;21.19
27826;BMP280;15077;49.704;9.908;2023-09-19T07:00:42;97918.28;;;21.19
27826;BMP280;15077;49.704;9.908;2023-09-19T07:03:10;97921.53;;;21.21
27826;BMP280;15077;49.704;9.908;2023-09-19T07:05:38;97931.03;;;21.20
27826;BMP280;15077;49.704;9.908;2023-09-19T07:08:07;97933.47;;;21.22
27826;BMP280;15077;49.704;9.908;2023-09-19T07:10:33;97946.09;;;21.25
27826;BMP280;15077;49.704;9.908;2023-09-19T07:13:04;97944.34;;;21.25
27826;BMP280;15077;49.704;9.908;2023-09-19T07:15:33;97951.94;;;21.27
27826;BMP280;15077;49.704;9.908;2023-09-19T07:18:01;97951.69;;;21.30
27826;BMP280;15077;49.704;9.908;2023-09-19T07:20:27;97961.72;;;21.33
27826;BMP280;15077;49.704;9.908;2023-09-19T07:22:55;97953.59;;;21.37
27826;BMP280;15077;49.704;9.908;2023-09-19T07:25:21;97952.41;;;21.41
27826;BMP280;15077;49.704;9.908;2023-09-19T07:27:47;97964.22;;;21.43
27826;BMP280;15077;49.704;9.908;2023-09-19T07:30:13;97964.00;;;21.46
27826;BMP280;15077;49.704;9.908;2023-09-19T07:32:39;97974.97;;;21.48
27826;BMP280;15077;49.704;9.908;2023-09-19T07:35:06;97971.47;;;21.49
27826;BMP280;15077;49.704;9.908;2023-09-19T07:37:33;97975.66;;;21.50
27826;BMP280;15077;49.704;9.908;2023-09-19T07:40:03;97981.50;;;21.52
27826;BMP280;15077;49.704;9.908;2023-09-19T07:42:34;97989.53;;;21.59
27826;BMP280;15077;49.704;9.908;2023-09-19T07:45:01;97987.63;;;21.61
27826;BMP280;15077;49.704;9.908;2023-09-19T07:47:27;97988.47;;;21.61
27826;BMP280;15077;49.704;9.908;2023-09-19T07:49:55;97987.50;;;21.62
27826;BMP280;15077;49.704;9.908;2023-09-19T07:52:21;97996.88;;;21.63
27826;BMP280;15077;49.704;9.908;2023-09-19T07:54:48;98000.03;;;21.67
27826;BMP280;15077;49.704;9.908;2023-09-19T07:57:15;97999.88;;;21.68
27826;BMP280;15077;49.704;9.908;2023-09-19T07:59:41;98003.28;;;21.69
27826;BMP280;15077;49.704;9.908;2023-09-19T08:02:09;98003.16;;;21.70
27826;BMP280;15077;49.704;9.908;2023-09-19T08:04:45;98002.06;;;21.73
27826;BMP280;15077;49.704;9.908;2023-09-19T08:07:14;98011.28;;;21.75
27826;BMP280;15077;49.704;9.908;2023-09-19T08:09:40;98023.78;;;21.80
27826;BMP280;15077;49.704;9.908;2023-09-19T08:12:07;98027.88;;;21.82
27826;BMP280;15077;49.704;9.908;2023-09-19T08:14:37;98030.34;;;21.84
27826;BMP280;15077;49.704;9.908;2023-09-19T08:17:03;98025.72;;;21.87
27826;BMP280;15077;49.704;9.908;2023-09-19T08:19:34;98029.66;;;21.91
27826;BMP280;15077;49.704;9.908;2023-09-19T08:22:00;98037.16;;;21.94
27826;BMP280;15077;49.704;9.908;2023-09-19T08:24:28;98038.78;;;21.95
27826;BMP280;15077;49.704;9.908;2023-09-19T08:26:57;98041.38;;;21.95
27826;BMP280;15077;49.704;9.908;2023-09-19T08:29:26;98043.69;;;21.98
27826;BMP280;15077;49.704;9.908;2023-09-19T08:31:56;98040.91;;;21.81
27826;BMP280;15077;49.704;9.908;2023-09-19T08:34:26;98041.91;;;21.98
27826;BMP280;15077;49.704;9.908;2023-09-19T08:36:55;98025.88;;;22.04
27826;BMP280;15077;49.704;9.908;2023-09-19T08:39:24;98031.56;;;21.89
27826;BMP280;15077;49.704;9.908;2023-09-19T08:42:01;98042.03;;;22.06
27826;BMP280;15077;49.704;9.908;2023-09-19T08:44:29;98038.81;;;22.14
27826;BMP280;15077;49.704;9.908;2023-09-19T08:47:10;98034.19;;;22.17
27826;BMP280;15077;49.704;9.908;2023-09-19T08:49:53;98032.88;;;22.23
27826;BMP280;15077;49.704;9.908;2023-09-19T08:52:32;98033.44;;;22.26
27826;BMP280;15077;49.704;9.908;2023-09-19T08:55:06;98037.91;;;22.34
27826;BMP280;15077;49.704;9.908;2023-09-19T08:57:35;98040.88;;;22.39
27826;BMP280;15077;49.704;9.908;2023-09-19T09:00:05;98038.75;;;22.43
27826;BMP280;15077;49.704;9.908;2023-09-19T09:02:40;98043.63;;;22.46
27826;BMP280;15077;49.704;9.908;2023-09-19T09:05:11;98045.25;;;22.47
27826;BMP280;15077;49.704;9.908;2023-09-19T09:07:40;98041.44;;;22.51
27826;BMP280;15077;49.704;9.908;2023-09-19T09:10:07;98049.72;;;22.55
27826;BMP280;15077;49.704;9.908;2023-09-19T09:12:35;98049.47;;;22.58
27826;BMP280;15077;49.704;9.908;2023-09-19T09:15:07;98045.13;;;22.58
27826;BMP280;15077;49.704;9.908;2023-09-19T09:17:34;98043.34;;;22.59
27826;BMP280;15077;49.704;9.908;2023-09-19T09:20:00;98044.84;;;22.61
27826;BMP280;15077;49.704;9.908;2023-09-19T09:22:26;98044.56;;;22.64
27826;BMP280;15077;49.704;9.908;2023-09-19T09:24:56;98037.50;;;22.66
27826;BMP280;15077;49.704;9.908;2023-09-19T09:27:30;98039.13;;;22.67
27826;BMP280;15077;49.704;9.908;2023-09-19T09:29:58;98042.38;;;22.69
27826;BMP280;15077;49.704;9.908;2023-09-19T09:32:29;98040.50;;;22.71
27826;BMP280;15077;49.704;9.908;2023-09-19T09:35:01;98053.28;;;22.73
27826;BMP280;15077;49.704;9.908;2023-09-19T09:37:28;98048.25;;;22.71
27826;BMP280;15077;49.704;9.908;2023-09-19T09:40:01;98051.91;;;22.69
27826;BMP280;15077;49.704;9.908;2023-09-19T09:42:45;98058.16;;;22.66
27826;BMP280;15077;49.704;9.908;2023-09-19T09:45:23;98058.16;;;22.66
27826;BMP280;15077;49.704;9.908;2023-09-19T09:47:59;98056.56;;;22.65
27826;BMP280;15077;49.704;9.908;2023-09-19T09:50:31;98057.09;;;22.69
27826;BMP280;15077;49.704;9.908;2023-09-19T09:53:28;98054.34;;;22.70
27826;BMP280;15077;49.704;9.908;2023-09-19T09:56:05;98053.56;;;22.70
27826;BMP280;15077;49.704;9.908;2023-09-19T09:58:50;98039.81;;;22.69
27826;BMP280;15077;49.704;9.908;2023-09-19T10:01:20;98046.72;;;22.78
27826;BMP280;15077;49.704;9.908;2023-09-19T10:03:46;98032.31;;;22.85
27826;BMP280;15077;49.704;9.908;2023-09-19T10:06:17;98046.88;;;22.95
27826;BMP280;15077;49.704;9.908;2023-09-19T10:09:07;98045.38;;;23.02
27826;BMP280;15077;49.704;9.908;2023-09-19T10:11:46;98055.00;;;23.10
27826;BMP280;15077;49.704;9.908;2023-09-19T10:14:17;98041.53;;;23.16
27826;BMP280;15077;49.704;9.908;2023-09-19T10:16:49;98045.06;;;23.24
27826;BMP280;15077;49.704;9.908;2023-09-19T10:19:36;98048.81;;;23.30
27826;BMP280;15077;49.704;9.908;2023-09-19T10:22:04;98042.53;;;23.41
27826;BMP280;15077;49.704;9.908;2023-09-19T10:24:33;98043.59;;;23.48
27826;BMP280;15077;49.704;9.908;2023-09-19T10:27:00;98047.25;;;23.55
27826;BMP280;15077;49.704;9.908;2023-09-19T10:29:28;98044.91;;;23.62
27826;BMP280;15077;49.704;9.908;2023-09-19T10:31:59;98034.00;;;23.68
27826;BMP280;15077;49.704;9.908;2023-09-19T10:34:27;98035.78;;;23.67
27826;BMP280;15077;49.704;9.908;2023-09-19T10:36:56;98039.03;;;23.69
27826;BMP280;15077;49.704;9.908;2023-09-19T10:39:21;98035.34;;;23.72
27826;BMP280;15077;49.704;9.908;2023-09-19T10:41:51;98041.31;;;23.82
27826;BMP280;15077;49.704;9.908;2023-09-19T10:44:23;98035.84;;;23.85
27826;BMP280;15077;49.704;9.908;2023-09-19T10:46:52;98038.94;;;23.88
27826;BMP280;15077;49.704;9.908;2023-09-19T10:49:20;98043.53;;;23.94
27826;BMP280;15077;49.704;9.908;2023-09-19T10:51:49;98047.47;;;23.98
27826;BMP280;15077;49.704;9.908;2023-09-19T10:54:22;98046.22;;;24.02
27826;BMP280;15077;49.704;9.908;2023-09-19T10:56:53;98048.53;;;24.05
27826;BMP280;15077;49.704;9.908;2023-09-19T10:59:21;98040.47;;;24.08
27826;BMP280;15077;49.704;9.908;2023-09-19T11:01:53;98055.56;;;24.12
27826;BMP280;15077;49.704;9.908;2023-09-19T11:04:29;98039.59;;;24.17
27826;BMP280;15077;49.704;9.908;2023-09-19T11:07:10;98041.59;;;24.23
27826;BMP280;15077;49.704;9.908;2023-09-19T11:09:53;98041.00;;;24.29
27826;BMP280;15077;49.704;9.908;2023-09-19T11:15:08;98043.25;;;24.41
27826;BMP280;15077;49.704;9.908;2023-09-19T11:17:39;98045.41;;;24.45
27826;BMP280;15077;49.704;9.908;2023-09-19T11:30:45;98029.03;;;24.62
27826;BMP280;15077;49.704;9.908;2023-09-19T11:33:31;98040.06;;;24.64
27826;BMP280;15077;49.704;9.908;2023-09-19T11:49:31;98025.94;;;24.84
27826;BMP280;15077;49.704;9.908;2023-09-19T11:52:04;98010.25;;;24.86
27826;BMP280;15077;49.704;9.908;2023-09-19T11:54:35;98018.16;;;24.84
27826;BMP280;15077;49.704;9.908;2023-09-19T11:57:07;98010.09;;;24.87
27826;BMP280;15077;49.704;9.908;2023-09-19T11:59:33;98014.00;;;24.91
27826;BMP280;15077;49.704;9.908;2023-09-19T12:02:12;98008.81;;;24.91
27826;BMP280;15077;49.704;9.908;2023-09-19T12:04:45;98010.16;;;24.95
27826;BMP280;15077;49.704;9.908;2023-09-19T12:07:15;98005.03;;;25.03
27826;BMP280;15077;49.704;9.908;2023-09-19T12:09:43;98001.84;;;25.09
27826;BMP280;15077;49.704;9.908;2023-09-19T12:12:11;98003.34;;;25.19
27826;BMP280;15077;49.704;9.908;2023-09-19T12:14:41;98005.78;;;25.21
27826;BMP280;15077;49.704;9.908;2023-09-19T12:17:09;97999.50;;;25.23
27826;BMP280;15077;49.704;9.908;2023-09-19T12:19:35;98001.13;;;25.24
27826;BMP280;15077;49.704;9.908;2023-09-19T12:22:03;98003.56;;;25.26
27826;BMP280;15077;49.704;9.908;2023-09-19T12:24:33;97994.00;;;25.26
27826;BMP280;15077;49.704;9.908;2023-09-19T12:27:06;97996.44;;;25.28
27826;BMP280;15077;49.704;9.908;2023-09-19T12:29:48;97985.41;;;25.26
27826;BMP280;15077;49.704;9.908;2023-09-19T12:32:14;97980.13;;;25.10
27826;BMP280;15077;49.704;9.908;2023-09-19T12:34:50;97979.91;;;25.29
27826;BMP280;15077;49.704;9.908;2023-09-19T12:37:18;97980.25;;;25.34
27826;BMP280;15077;49.704;9.908;2023-09-19T12:39:50;97985.66;;;25.40
27826;BMP280;15077;49.704;9.908;2023-09-19T12:42:24;97981.28;;;25.40
27826;BMP280;15077;49.704;9.908;2023-09-19T12:44:56;97975.75;;;25.43
27826;BMP280;15077;49.704;9.908;2023-09-19T12:47:24;97984.25;;;25.53
27826;BMP280;15077;49.704;9.908;2023-09-19T12:52:41;97972.88;;;25.54
27826;BMP280;15077;49.704;9.908;2023-09-19T12:55:07;97973.56;;;25.56
27826;BMP280;15077;49.704;9.908;2023-09-19T12:57:35;97965.09;;;25.54
27826;BMP280;15077;49.704;9.908;2023-09-19T13:00:04;97964.13;;;25.55
27826;BMP280;15077;49.704;9.908;2023-09-19T13:02:37;97966.72;;;25.55
27826;BMP280;15077;49.704;9.908;2023-09-19T13:05:04;97961.38;;;25.57
27826;BMP280;15077;49.704;9.908;2023-09-19T13:07:45;97969.00;;;25.58
27826;BMP280;15077;49.704;9.908;2023-09-19T13:10:15;97966.47;;;25.66
27826;BMP280;15077;49.704;9.908;2023-09-19T13:12:43;97965.81;;;25.72
27826;BMP280;15077;49.704;9.908;2023-09-19T13:15:14;97961.00;;;25.77
27826;BMP280;15077;49.704;9.908;2023-09-19T13:17:47;97962.97;;;25.83
27826;BMP280;15077;49.704;9.908;2023-09-19T13:20:26;97966.88;;;25.87
27826;BMP280;15077;49.704;9.908;2023-09-19T13:22:58;97966.03;;;25.87
27826;BMP280;15077;49.704;9.908;2023-09-19T13:25:34;97962.31;;;25.89
27826;BMP280;15077;49.704;9.908;2023-09-19T13:28:00;97966.53;;;25.90
27826;BMP280;15077;49.704;9.908;2023-09-19T13:30:30;97966.22;;;25.93
27826;BMP280;15077;49.704;9.908;2023-09-19T13:33:11;97958.44;;;25.93
27826;BMP280;15077;49.704;9.908;2023-09-19T13:35:39;97960.03;;;25.94
27826;BMP280;15077;49.704;9.908;2023-09-19T13:38:07;97975.97;;;25.99
27826;BMP280;15077;49.704;9.908;2023-09-19T13:40:38;97970.78;;;25.99
27826;BMP280;15077;49.704;9.908;2023-09-19T13:43:05;97969.16;;;25.98
27826;BMP280;15077;49.704;9.908;2023-09-19T13:45:32;97964.91;;;25.97
27826;BMP280;15077;49.704;9.908;2023-09-19T13:47:58;97967.84;;;25.94
27826;BMP280;15077;49.704;9.908;2023-09-19T13:50:27;97958.44;;;25.93
27826;BMP280;15077;49.704;9.908;2023-09-19T13:52:54;97959.41;;;25.92
27826;BMP280;15077;49.704;9.908;2023-09-19T13:55:21;97960.19;;;25.92
27826;BMP280;15077;49.704;9.908;2023-09-19T13:57:48;97958.28;;;25.94
27826;BMP280;15077;49.704;9.908;2023-09-19T14:00:18;97939.78;;;25.97
27826;BMP280;15077;49.704;9.908;2023-09-19T14:02:44;97943.50;;;26.03
27826;BMP280;15077;49.704;9.908;2023-09-19T14:05:10;97932.78;;;26.06
27826;BMP280;15077;49.704;9.908;2023-09-19T14:07:41;97951.66;;;26.08
27826;BMP280;15077;49.704;9.908;2023-09-19T14:10:07;97950.47;;;26.10
27826;BMP280;15077;49.704;9.908;2023-09-19T14:12:34;97947.09;;;26.10
27826;BMP280;15077;49.704;9.908;2023-09-19T14:15:00;97947.88;;;26.10
27826;BMP280;15077;49.704;9.908;2023-09-19T14:17:26;97936.06;;;26.08
27826;BMP280;15077;49.704;9.908;2023-09-19T14:19:52;97929.56;;;26.04
27826;BMP280;15077;49.704;9.908;2023-09-19T14:22:18;97941.91;;;26.02
27826;BMP280;15077;49.704;9.908;2023-09-19T14:24:44;97944.50;;;26.02
27826;BMP280;15077;49.704;9.908;2023-09-19T14:27:09;97941.91;;;26.02
27826;BMP280;15077;49.704;9.908;2023-09-19T14:29:36;97947.72;;;26.04
27826;BMP280;15077;49.704;9.908;2023-09-19T14:32:03;97934.59;;;26.05
27826;BMP280;15077;49.704;9.908;2023-09-19T14:34:29;97931.97;;;26.05
27826;BMP280;15077;49.704;9.908;2023-09-19T14:36:54;97939.31;;;26.02
27826;BMP280;15077;49.704;9.908;2023-09-19T14:39:20;97932.94;;;25.96
27826;BMP280;15077;49.704;9.908;2023-09-19T14:41:46;97935.22;;;25.91
27826;BMP280;15077;49.704;9.908;2023-09-19T14:44:12;97935.72;;;25.87
27826;BMP280;15077;49.704;9.908;2023-09-19T14:46:38;97937.63;;;25.85
27826;BMP280;15077;49.704;9.908;2023-09-19T14:49:04;97926.91;;;25.80
27826;BMP280;15077;49.704;9.908;2023-09-19T14:51:31;97923.97;;;25.75
27826;BMP280;15077;49.704;9.908;2023-09-19T14:53:57;97926.09;;;25.72
27826;BMP280;15077;49.704;9.908;2023-09-19T14:56:24;97924.59;;;25.69
27826;BMP280;15077;49.704;9.908;2023-09-19T14:58:51;97932.88;;;25.65
27826;BMP280;15077;49.704;9.908;2023-09-19T15:01:17;97925.22;;;25.63
27826;BMP280;15077;49.704;9.908;2023-09-19T15:03:43;97934.00;;;25.62
27826;BMP280;15077;49.704;9.908;2023-09-19T15:06:11;97924.72;;;25.60
27826;BMP280;15077;49.704;9.908;2023-09-19T15:08:41;97934.47;;;25.58